DAAT

Aguenar – Hadj Bey Akhamok Airport

Tamanrasset, Algeria
METAR DAAT 201900Z 30010KT 9999 BKN046 SCT100 29/03 Q1023
Observed Flight Rules
Oct-20 @ 19:00 UTC (24 minutes ago) Visual Flight Rules
Wind Visibility Clouds
300° at 10 knots 10,000+ meters
  • Broken at 4,600' AGL
  • Scattered at 10,000' AGL
Temperatures Readings
Current 29°C / 84°F
Dewpoint 3°C / 37°F
Humidity 19%
Altimeter 30.21" Hg
Pressure 1023 hPa
Elevation 1377
METAR DAAT 201900Z 30010KT 9999 BKN046 SCT100 29/03 Q1023
Observed Flight Rules
Oct-20 @ 19:00 UTC
(24 minutes ago)
VFR
Wind Visibility
300° at 10 knots 10,000+ meters
Clouds
  • Broken at 4,600' AGL
  • Scattered at 10,000' AGL
Temperature Dewpoint
29°C / 84°F 3°C / 37°F
Humidity Altimeter Pressure
19% 30.21" Hg 1023 hPa